Terminal Aerodrome Forecast
Issued by NWS

Home | Current Version | Previous Version | Text Only | Print | Product List | Glossary On
Versions: 1 2 3 4 5 6 7 8 9 10 11 12 13 14 15 16 17
000
FTUS43 KBIS 222335
TAFMOT
TAF
KMOT 222335Z 2300/2324 21010KT P6SM BKN100 WS020/26035KT
     FM230200 25015G23KT P6SM BKN110 WS020/28040KT
     FM230900 28021G31KT P6SM VCSH BKN080 WS020/31040KT
     FM231700 30025G35KT P6SM BKN070=

USA.gov is the U.S. government's official web portal to all federal, state and local government web resources and services.